Time;durP1;ratioP1;P1;durP2;ratioP2;P2;SDS_P1;SDS_P2;PMS_P1;PMS_P2;Temp;Humidity;BMP_temperature;BMP_pressure;BME280_temperature;BME280_humidity;BME280_pressure;Samples;Min_cycle;Max_cycle;Signal;HPM_P1;HPM_P2
2020/12/09 00:00:07;;;;;;;0.13;0.10;;;6.90;85.40;;;;;;5079560;28;20040;-71
2020/12/09 00:02:33;;;;;;;0.25;0.20;;;6.90;84.80;;;;;;5061558;28;20028;-71
2020/12/09 00:04:58;;;;;;;0.22;0.20;;;6.90;83.80;;;;;;5061368;28;20420;-71
2020/12/09 00:07:24;;;;;;;0.30;0.20;;;7.00;83.60;;;;;;5079207;28;20078;-71
2020/12/09 00:09:50;;;;;;;0.10;0.10;;;7.00;83.70;;;;;;5061527;28;20025;-71
2020/12/09 00:12:16;;;;;;;0.25;0.15;;;7.00;83.40;;;;;;5079222;28;20027;-71
2020/12/09 00:14:42;;;;;;;0.85;0.20;;;7.00;84.80;;;;;;5079183;28;20400;-71
2020/12/09 00:17:09;;;;;;;0.50;0.25;;;6.90;85.90;;;;;;5061233;28;20055;-71
2020/12/09 00:19:34;;;;;;;0.30;0.17;;;6.80;85.60;;;;;;5079341;28;20025;-71
2020/12/09 00:22:00;;;;;;;0.30;0.20;;;6.80;84.80;;;;;;5079383;28;20106;-71
2020/12/09 00:24:28;;;;;;;0.20;0.20;;;6.70;84.50;;;;;;5078824;28;20049;-72
2020/12/09 00:26:54;;;;;;;0.13;0.13;;;6.80;85.00;;;;;;5079033;28;20033;-71
2020/12/09 00:29:20;;;;;;;0.10;0.10;;;6.70;85.80;;;;;;5079069;28;20008;-71
2020/12/09 00:31:46;;;;;;;0.75;0.30;;;6.70;84.70;;;;;;5078792;28;20032;-71
2020/12/09 00:34:12;;;;;;;0.93;0.20;;;6.70;84.70;;;;;;5078262;28;20017;-71
2020/12/09 00:36:38;;;;;;;0.30;0.20;;;6.80;84.80;;;;;;5078666;28;20028;-71
2020/12/09 00:39:03;;;;;;;0.43;0.20;;;6.70;81.80;;;;;;5078504;28;20043;-71
2020/12/09 00:41:29;;;;;;;0.45;0.20;;;6.80;82.10;;;;;;5078565;28;20033;-71
2020/12/09 00:43:57;;;;;;;0.40;0.20;;;6.80;82.50;;;;;;5078460;28;20039;-71
2020/12/09 00:46:26;;;;;;;0.20;0.10;;;6.80;83.80;;;;;;5078430;28;20052;-71
2020/12/09 00:48:52;;;;;;;0.10;0.10;;;6.80;82.20;;;;;;5079068;28;20028;-71
2020/12/09 00:51:20;;;;;;;0.52;0.28;;;6.70;81.60;;;;;;5078392;28;20033;-71
2020/12/09 00:53:46;;;;;;;0.70;0.40;;;6.80;80.50;;;;;;5078388;28;20086;-71
2020/12/09 00:56:12;;;;;;;0.75;0.52;;;6.80;79.60;;;;;;5078308;28;20036;-71
2020/12/09 00:58:38;;;;;;;0.38;0.25;;;6.80;79.60;;;;;;5078247;28;20085;-71
2020/12/09 01:01:05;;;;;;;0.47;0.20;;;6.80;82.30;;;;;;5078774;28;20063;-71
2020/12/09 01:03:31;;;;;;;0.30;0.15;;;6.80;82.90;;;;;;5060405;28;20020;-71
2020/12/09 01:05:58;;;;;;;0.20;0.17;;;6.80;83.00;;;;;;5078218;28;20067;-71
2020/12/09 01:08:23;;;;;;;0.17;0.17;;;6.70;84.10;;;;;;5078090;28;20017;-71
2020/12/09 01:10:49;;;;;;;1.92;0.80;;;6.70;83.70;;;;;;5077998;28;20024;-71
2020/12/09 01:13:15;;;;;;;0.95;0.40;;;6.70;85.40;;;;;;5077931;28;20027;-71
2020/12/09 01:15:42;;;;;;;0.20;0.10;;;6.60;85.80;;;;;;5077715;28;20080;-71
2020/12/09 01:18:08;;;;;;;0.32;0.20;;;6.80;82.40;;;;;;5077848;28;20040;-71
2020/12/09 01:20:34;;;;;;;0.10;0.10;;;6.90;81.80;;;;;;5077798;28;20420;-71
2020/12/09 01:23:00;;;;;;;0.30;0.20;;;7.00;80.10;;;;;;5060147;28;20039;-71
2020/12/09 01:25:25;;;;;;;0.22;0.17;;;7.00;81.40;;;;;;5077389;28;20044;-71
2020/12/09 01:27:53;;;;;;;0.17;0.17;;;7.00;81.40;;;;;;5077702;28;20020;-72
2020/12/09 01:30:19;;;;;;;0.20;0.20;;;7.00;83.50;;;;;;5077610;28;20020;-71
2020/12/09 01:32:44;;;;;;;0.30;0.30;;;7.00;82.50;;;;;;5077528;28;20461;-71
2020/12/09 01:35:10;;;;;;;0.10;0.10;;;7.00;80.40;;;;;;5059795;28;20036;-71
2020/12/09 01:37:35;;;;;;;0.60;0.20;;;7.20;80.20;;;;;;5077648;28;20025;-71
2020/12/09 01:40:01;;;;;;;1.00;0.20;;;7.20;79.70;;;;;;5077760;28;20082;-72
2020/12/09 01:42:27;;;;;;;0.10;0.10;;;7.10;82.30;;;;;;5077395;28;20055;-71
2020/12/09 01:44:52;;;;;;;0.20;0.10;;;7.10;77.40;;;;;;5077209;28;20368;-71
2020/12/09 01:47:19;;;;;;;0.10;0.10;;;7.20;82.20;;;;;;5076525;28;20020;-72
2020/12/09 01:49:45;;;;;;;0.52;0.30;;;7.10;84.90;;;;;;5077574;28;20404;-72
2020/12/09 01:52:12;;;;;;;1.35;0.70;;;7.00;81.70;;;;;;5077433;28;20023;-72
2020/12/09 01:54:37;;;;;;;4.78;1.25;;;7.00;81.30;;;;;;5077449;28;20025;-72
2020/12/09 01:57:11;;;;;;;0.45;0.30;;;6.80;83.20;;;;;;5077145;28;20328;-71
2020/12/09 01:59:39;;;;;;;0.20;0.13;;;6.60;86.20;;;;;;5077427;28;20347;-72
2020/12/09 02:02:06;;;;;;;0.38;0.20;;;6.50;86.80;;;;;;5077061;28;20105;-71
2020/12/09 02:04:33;;;;;;;0.20;0.20;;;6.40;86.40;;;;;;5076923;28;20044;-71
2020/12/09 02:06:58;;;;;;;1.02;0.20;;;6.40;87.00;;;;;;5077041;28;20032;-72
2020/12/09 02:09:24;;;;;;;0.10;0.10;;;6.40;88.00;;;;;;5077149;28;20024;-71
2020/12/09 02:11:52;;;;;;;1.05;0.20;;;6.40;86.00;;;;;;5059445;28;20314;-72
2020/12/09 02:14:18;;;;;;;1.50;0.20;;;6.50;87.90;;;;;;5076833;28;20301;-71
2020/12/09 02:16:51;;;;;;;0.43;0.20;;;6.60;84.60;;;;;;5076843;28;20032;-72
2020/12/09 02:19:17;;;;;;;0.45;0.20;;;6.80;82.00;;;;;;5077193;28;20064;-71
2020/12/09 02:21:43;;;;;;;0.10;0.10;;;6.90;83.60;;;;;;5059054;28;20052;-72
2020/12/09 02:24:08;;;;;;;0.10;0.10;;;7.00;82.50;;;;;;5076699;28;20040;-72
2020/12/09 02:26:34;;;;;;;0.70;0.38;;;7.10;81.80;;;;;;5058923;28;20024;-72
2020/12/09 02:29:00;;;;;;;0.20;0.10;;;7.20;80.90;;;;;;5077019;28;20111;-71
2020/12/09 02:31:25;;;;;;;0.65;0.20;;;7.10;81.60;;;;;;5076709;28;20315;-71
2020/12/09 02:33:51;;;;;;;0.40;0.20;;;7.10;81.80;;;;;;5076655;28;20082;-72
2020/12/09 02:36:19;;;;;;;0.52;0.38;;;7.00;82.00;;;;;;5076683;28;20443;-71
2020/12/09 02:38:45;;;;;;;0.30;0.20;;;7.00;79.60;;;;;;5076665;28;20029;-72
2020/12/09 02:41:11;;;;;;;0.13;0.13;;;7.00;82.50;;;;;;5076637;28;20020;-72
2020/12/09 02:43:36;;;;;;;1.38;0.73;;;7.10;80.80;;;;;;5076505;28;20028;-71
2020/12/09 02:46:03;;;;;;;0.10;0.10;;;7.10;82.60;;;;;;5076789;28;20024;-71
2020/12/09 02:48:29;;;;;;;0.38;0.22;;;7.10;82.20;;;;;;5058773;28;20078;-71
2020/12/09 02:50:56;;;;;;;0.45;0.32;;;7.00;81.20;;;;;;5076545;28;20020;-71
2020/12/09 02:53:25;;;;;;;0.60;0.40;;;6.90;80.00;;;;;;5076513;28;20028;-71
2020/12/09 02:55:53;;;;;;;0.40;0.30;;;6.70;79.10;;;;;;5076431;28;20071;-71
2020/12/09 02:58:18;;;;;;;0.17;0.15;;;6.60;79.00;;;;;;5078782;28;20405;-71
2020/12/09 03:00:44;;;;;;;0.40;0.20;;;6.70;79.20;;;;;;5080525;28;20044;-71
2020/12/09 03:03:09;;;;;;;0.30;0.30;;;6.80;78.40;;;;;;5080472;28;20028;-71
2020/12/09 03:05:35;;;;;;;0.30;0.20;;;6.90;79.00;;;;;;5080309;28;20466;-71
2020/12/09 03:08:01;;;;;;;0.40;0.30;;;7.00;78.80;;;;;;5080392;28;20020;-71
2020/12/09 03:10:27;;;;;;;0.60;0.40;;;7.10;79.20;;;;;;5080361;28;20353;-71
2020/12/09 03:12:52;;;;;;;0.32;0.20;;;7.10;77.90;;;;;;5080267;28;20359;-72
2020/12/09 03:15:19;;;;;;;0.52;0.30;;;7.00;78.70;;;;;;5080168;28;20474;-72
2020/12/09 03:17:45;;;;;;;1.05;0.43;;;6.90;81.80;;;;;;5080195;28;20424;-71
2020/12/09 03:20:10;;;;;;;1.65;0.40;;;6.80;81.80;;;;;;5080128;28;20111;-72
2020/12/09 03:22:36;;;;;;;0.68;0.35;;;6.70;81.80;;;;;;5080302;28;20029;-72
2020/12/09 03:25:02;;;;;;;0.77;0.30;;;6.60;81.80;;;;;;5062022;28;20143;-72
2020/12/09 03:27:30;;;;;;;0.43;0.30;;;6.60;83.30;;;;;;5079966;28;20032;-72
2020/12/09 03:29:55;;;;;;;0.85;0.50;;;6.30;84.80;;;;;;5062181;28;20044;-71
2020/12/09 03:32:21;;;;;;;0.40;0.28;;;6.20;86.30;;;;;;5079907;28;20383;-72
2020/12/09 03:34:47;;;;;;;0.28;0.20;;;6.10;86.90;;;;;;5079787;28;20328;-71
2020/12/09 03:37:12;;;;;;;0.40;0.20;;;6.10;87.90;;;;;;5062081;28;20032;-71
2020/12/09 03:39:38;;;;;;;0.30;0.20;;;6.10;88.90;;;;;;5079853;28;20020;-71
2020/12/09 03:42:03;;;;;;;1.08;0.20;;;6.10;89.80;;;;;;5079712;28;20021;-72
2020/12/09 03:44:29;;;;;;;0.30;0.30;;;6.10;87.80;;;;;;5079797;28;20027;-71
2020/12/09 03:47:03;;;;;;;0.52;0.30;;;6.10;87.20;;;;;;5079514;28;20032;-71
2020/12/09 03:49:29;;;;;;;0.85;0.30;;;6.20;86.60;;;;;;5079614;28;20333;-71
2020/12/09 03:51:54;;;;;;;0.30;0.25;;;6.20;85.90;;;;;;5079524;28;20028;-71
2020/12/09 03:54:20;;;;;;;1.05;0.22;;;6.20;86.00;;;;;;5079852;28;20021;-72
2020/12/09 03:56:46;;;;;;;0.70;0.40;;;6.20;85.30;;;;;;5079533;28;20094;-71
2020/12/09 03:59:11;;;;;;;1.98;0.70;;;6.20;85.00;;;;;;5061754;28;20064;-71
2020/12/09 04:01:40;;;;;;;1.77;0.70;;;6.00;84.40;;;;;;5079577;28;20028;-71
2020/12/09 04:04:05;;;;;;;0.82;0.60;;;5.90;86.40;;;;;;5079245;28;20025;-72
2020/12/09 04:06:31;;;;;;;2.25;0.60;;;5.70;89.70;;;;;;5079255;28;20039;-72
2020/12/09 04:08:56;;;;;;;0.52;0.30;;;5.60;90.00;;;;;;5078536;28;20024;-72
2020/12/09 04:11:22;;;;;;;0.40;0.30;;;5.60;90.40;;;;;;5079177;28;20420;-72
2020/12/09 04:13:48;;;;;;;0.80;0.30;;;5.60;91.10;;;;;;5079046;28;20100;-72
2020/12/09 04:16:14;;;;;;;0.75;0.32;;;5.50;92.00;;;;;;5079422;28;20081;-72
2020/12/09 04:18:40;;;;;;;0.35;0.20;;;5.50;92.60;;;;;;5079117;28;20032;-72
2020/12/09 04:21:05;;;;;;;0.43;0.30;;;5.50;93.50;;;;;;5078999;28;20107;-72
2020/12/09 04:23:31;;;;;;;0.60;0.30;;;5.50;93.60;;;;;;5078984;28;20028;-72
2020/12/09 04:25:57;;;;;;;0.35;0.20;;;5.50;93.80;;;;;;5078622;28;20421;-72
2020/12/09 04:28:22;;;;;;;0.50;0.20;;;5.50;92.20;;;;;;5078955;28;20027;-72
2020/12/09 04:30:48;;;;;;;0.30;0.20;;;5.60;90.90;;;;;;5061099;28;20027;-72
2020/12/09 04:33:14;;;;;;;0.40;0.20;;;5.60;90.60;;;;;;5078794;28;20386;-72
2020/12/09 04:35:43;;;;;;;0.30;0.20;;;5.70;89.80;;;;;;5078988;28;20112;-72
2020/12/09 04:38:13;;;;;;;0.40;0.20;;;5.80;90.00;;;;;;5078762;28;20020;-72
2020/12/09 04:40:39;;;;;;;0.30;0.20;;;5.80;90.70;;;;;;5078639;28;20028;-72
2020/12/09 04:43:05;;;;;;;2.35;0.30;;;5.70;89.70;;;;;;5078598;28;20031;-72
2020/12/09 04:45:31;;;;;;;0.38;0.32;;;5.70;90.10;;;;;;5078446;28;20032;-72
2020/12/09 04:48:08;;;;;;;0.70;0.32;;;5.60;89.70;;;;;;5078513;28;20020;-72
2020/12/09 04:50:55;;;;;;;2.28;0.60;;;5.60;90.10;;;;;;5078646;28;20024;-72
2020/12/09 04:53:25;;;;;;;0.70;0.50;;;5.50;89.00;;;;;;5064416;28;20029;-71
2020/12/09 04:55:52;;;;;;;0.38;0.10;;;5.50;89.00;;;;;;5060498;28;20032;-71
2020/12/09 04:58:28;;;;;;;0.20;0.13;;;5.50;88.70;;;;;;5078311;28;20479;-71
2020/12/09 05:01:07;;;;;;;0.73;0.10;;;5.70;89.40;;;;;;5078331;28;20081;-72
2020/12/09 05:03:46;;;;;;;0.13;0.10;;;5.90;87.60;;;;;;5078199;28;20404;-72
2020/12/09 05:06:14;;;;;;;0.17;0.17;;;6.10;87.60;;;;;;5078074;28;20028;-72
2020/12/09 05:08:52;;;;;;;0.50;0.30;;;6.10;91.10;;;;;;5078121;28;20024;-72
2020/12/09 05:11:21;;;;;;;1.15;0.63;;;5.80;92.50;;;;;;5078344;28;20025;-72
2020/12/09 05:13:51;;;;;;;0.35;0.20;;;5.50;93.60;;;;;;5077872;28;20017;-72
2020/12/09 05:16:19;;;;;;;0.80;0.50;;;5.30;94.90;;;;;;5078537;28;20033;-72
2020/12/09 05:18:46;;;;;;;0.60;0.30;;;5.10;95.60;;;;;;5077931;28;20028;-72
2020/12/09 05:21:19;;;;;;;1.17;0.50;;;5.10;96.00;;;;;;5077816;28;20074;-72
2020/12/09 05:23:59;;;;;;;1.38;0.70;;;5.20;94.60;;;;;;5077599;28;20106;-72
2020/12/09 05:26:29;;;;;;;0.80;0.40;;;5.20;93.20;;;;;;5077876;28;20102;-72
2020/12/09 05:29:15;;;;;;;0.10;0.10;;;5.30;93.20;;;;;;5077931;28;20052;-72
2020/12/09 05:31:49;;;;;;;1.55;0.10;;;5.50;89.10;;;;;;5077684;28;20436;-72
2020/12/09 05:34:28;;;;;;;0.43;0.40;;;5.60;91.80;;;;;;5077980;28;20090;-72
2020/12/09 05:36:57;;;;;;;0.20;0.05;;;5.60;91.70;;;;;;5077571;28;20316;-72
2020/12/09 05:39:24;;;;;;;0.17;0.10;;;5.70;92.00;;;;;;5077637;28;20031;-72
2020/12/09 05:41:50;;;;;;;0.10;0.10;;;5.80;90.90;;;;;;5077440;28;20293;-72
2020/12/09 05:44:18;;;;;;;0.10;0.10;;;5.80;89.40;;;;;;5059559;28;20054;-73
2020/12/09 05:47:03;;;;;;;0.17;0.10;;;5.80;90.60;;;;;;5077469;28;20032;-72
2020/12/09 05:49:37;;;;;;;0.00;0.00;;;5.80;89.40;;;;;;5077640;28;20047;-73
2020/12/09 05:52:04;;;;;;;0.10;0.10;;;5.80;90.80;;;;;;5077262;28;20032;-72
2020/12/09 05:54:30;;;;;;;0.30;0.10;;;6.00;88.90;;;;;;5077510;28;20027;-72
2020/12/09 05:56:56;;;;;;;0.05;0.05;;;6.00;89.00;;;;;;5077140;28;20033;-72
2020/12/09 05:59:38;;;;;;;0.10;0.10;;;6.10;88.20;;;;;;5077187;28;20033;-72
2020/12/09 06:02:09;;;;;;;0.00;0.00;;;6.00;87.00;;;;;;5077115;28;20126;-72
2020/12/09 06:04:55;;;;;;;0.00;0.00;;;5.90;88.40;;;;;;5077020;28;20062;-71
2020/12/09 06:07:22;;;;;;;0.00;0.00;;;5.90;87.40;;;;;;5077280;28;20032;-72
2020/12/09 06:10:01;;;;;;;0.10;0.10;;;5.80;89.30;;;;;;5059315;28;20399;-72
2020/12/09 06:12:27;;;;;;;0.17;0.00;;;5.80;91.10;;;;;;5076988;28;20028;-73
2020/12/09 06:15:12;;;;;;;0.10;0.10;;;5.70;92.10;;;;;;5076891;28;20431;-72
2020/12/09 06:17:38;;;;;;;0.10;0.05;;;5.80;89.60;;;;;;5077168;28;20031;-73
2020/12/09 06:20:04;;;;;;;0.20;0.10;;;5.90;91.10;;;;;;5077100;28;20028;-72
2020/12/09 06:22:35;;;;;;;0.10;0.10;;;5.90;92.10;;;;;;5076833;28;20103;-72
2020/12/09 06:25:05;;;;;;;1.75;0.20;;;5.90;89.70;;;;;;5076638;28;20055;-72
2020/12/09 06:27:36;;;;;;;0.32;0.05;;;5.90;93.20;;;;;;5076775;28;20029;-72
2020/12/09 06:30:05;;;;;;;0.57;0.05;;;5.70;93.00;;;;;;5076797;28;20031;-72
2020/12/09 06:32:47;;;;;;;0.10;0.10;;;5.70;93.60;;;;;;5076293;28;20404;-72
2020/12/09 06:35:12;;;;;;;0.20;0.10;;;5.80;91.40;;;;;;5076647;28;20020;-72
2020/12/09 06:37:38;;;;;;;0.45;0.25;;;5.70;91.50;;;;;;5076694;28;20047;-72
2020/12/09 06:40:11;;;;;;;0.30;0.20;;;5.70;93.10;;;;;;5076636;28;20025;-72
2020/12/09 06:42:38;;;;;;;1.17;0.30;;;5.60;93.50;;;;;;5076600;28;20032;-72
2020/12/09 06:45:06;;;;;;;1.58;0.28;;;5.70;92.10;;;;;;5076494;28;20017;-72
2020/12/09 06:47:32;;;;;;;0.30;0.13;;;5.60;94.10;;;;;;5076595;28;20033;-72
2020/12/09 06:50:00;;;;;;;0.00;0.00;;;5.60;92.10;;;;;;5076558;28;20013;-73
2020/12/09 06:52:31;;;;;;;0.00;0.00;;;5.60;93.20;;;;;;5076883;28;20355;-73
2020/12/09 06:54:58;;;;;;;0.00;0.00;;;5.50;93.70;;;;;;5076398;28;20044;-72
2020/12/09 06:57:35;;;;;;;0.10;0.00;;;5.40;94.20;;;;;;5076513;28;20074;-73
2020/12/09 07:00:10;;;;;;;0.00;0.00;;;5.40;94.30;;;;;;5058714;28;20074;-72
2020/12/09 07:02:37;;;;;;;0.17;0.08;;;5.50;94.10;;;;;;5076577;28;20020;-73
2020/12/09 07:05:10;;;;;;;0.05;0.00;;;5.40;94.90;;;;;;5058559;28;20029;-72
2020/12/09 07:07:41;;;;;;;0.47;0.00;;;5.50;94.90;;;;;;5076456;28;20020;-73
2020/12/09 07:10:18;;;;;;;0.38;0.10;;;5.40;95.00;;;;;;5076357;28;20027;-72
2020/12/09 07:12:45;;;;;;;0.40;0.00;;;5.40;95.20;;;;;;5076490;28;20024;-73
2020/12/09 07:15:11;;;;;;;0.00;0.00;;;5.40;94.20;;;;;;5076423;28;20321;-73
2020/12/09 07:17:37;;;;;;;0.00;0.00;;;5.40;94.70;;;;;;5076482;28;20124;-73
2020/12/09 07:20:04;;;;;;;0.60;0.10;;;5.50;93.70;;;;;;5058479;28;20074;-73
2020/12/09 07:22:30;;;;;;;0.30;0.10;;;5.40;94.20;;;;;;5076260;28;20021;-73
2020/12/09 07:24:58;;;;;;;0.40;0.10;;;5.30;94.90;;;;;;5076071;28;20080;-73
2020/12/09 07:27:28;;;;;;;0.65;0.20;;;5.20;95.50;;;;;;5076212;28;20297;-73
2020/12/09 07:30:05;;;;;;;0.30;0.10;;;5.20;95.80;;;;;;5076229;28;20016;-73
2020/12/09 07:32:31;;;;;;;1.30;0.20;;;5.10;95.90;;;;;;5076507;28;20435;-73
2020/12/09 07:34:59;;;;;;;0.93;0.13;;;5.10;96.50;;;;;;5076056;28;20024;-73
2020/12/09 07:37:32;;;;;;;1.25;0.20;;;5.20;96.30;;;;;;5058302;28;20029;-73
2020/12/09 07:40:03;;;;;;;0.00;0.00;;;5.20;95.20;;;;;;5076085;28;20289;-73
2020/12/09 07:42:28;;;;;;;0.08;0.00;;;5.20;93.60;;;;;;5076098;28;20032;-73
2020/12/09 07:44:54;;;;;;;0.08;0.08;;;5.30;92.30;;;;;;5077367;28;20024;-73
2020/12/09 07:47:27;;;;;;;0.00;0.00;;;5.40;91.20;;;;;;5079693;28;20021;-73
2020/12/09 07:50:04;;;;;;;0.10;0.10;;;5.40;92.00;;;;;;5079956;28;20096;-72
2020/12/09 07:52:38;;;;;;;1.02;0.03;;;5.50;90.70;;;;;;5079904;28;20029;-73
2020/12/09 07:55:12;;;;;;;1.75;0.08;;;5.60;90.40;;;;;;5079918;28;20028;-73
2020/12/09 07:57:39;;;;;;;0.00;0.00;;;5.70;91.20;;;;;;5079556;28;20032;-73
2020/12/09 08:00:13;;;;;;;0.10;0.10;;;5.70;91.90;;;;;;5079439;28;20103;-72
2020/12/09 08:02:41;;;;;;;1.38;0.95;;;5.70;90.30;;;;;;5079374;28;20028;-72
2020/12/09 08:05:14;;;;;;;1.20;0.70;;;5.70;91.60;;;;;;5079291;28;20027;-73
2020/12/09 08:07:49;;;;;;;1.50;0.50;;;5.70;91.00;;;;;;5061808;28;20412;-72
2020/12/09 08:10:19;;;;;;;1.05;0.60;;;5.70;90.40;;;;;;5079562;28;20028;-72
2020/12/09 08:12:45;;;;;;;1.45;1.02;;;5.70;91.50;;;;;;5079178;28;20036;-73
2020/12/09 08:15:13;;;;;;;0.85;0.30;;;5.60;92.90;;;;;;5079099;28;20025;-73
2020/12/09 08:17:46;;;;;;;0.25;0.10;;;5.50;93.20;;;;;;5079574;28;20309;-73
2020/12/09 08:20:14;;;;;;;0.10;0.10;;;5.60;93.50;;;;;;5079120;28;20306;-73
2020/12/09 08:23:08;;;;;;;0.50;0.30;;;5.60;92.10;;;;;;5079014;28;20065;-73
2020/12/09 08:25:50;;;;;;;0.55;0.30;;;5.60;92.90;;;;;;5040775;28;20037;-73
2020/12/09 08:28:21;;;;;;;0.20;0.20;;;5.50;94.00;;;;;;5058962;28;20032;-73
2020/12/09 08:30:48;;;;;;;0.20;0.10;;;5.40;94.50;;;;;;5058732;28;20064;-73
2020/12/09 08:33:17;;;;;;;0.50;0.20;;;5.40;92.80;;;;;;5058817;28;20055;-72
2020/12/09 08:36:00;;;;;;;0.10;0.10;;;5.40;92.60;;;;;;5058718;28;20028;-73
2020/12/09 08:38:29;;;;;;;0.13;0.10;;;5.50;91.40;;;;;;5058755;28;20021;-73
2020/12/09 08:40:56;;;;;;;0.00;0.00;;;5.70;87.70;;;;;;5058667;28;20031;-73
2020/12/09 08:43:27;;;;;;;0.35;0.10;;;5.80;89.70;;;;;;5058617;28;20167;-73
2020/12/09 08:45:56;;;;;;;0.75;0.10;;;5.90;90.30;;;;;;5058511;28;20029;-73
2020/12/09 08:48:22;;;;;;;1.10;0.10;;;5.80;91.50;;;;;;5058686;28;20029;-73
2020/12/09 08:50:49;;;;;;;0.32;0.10;;;5.80;92.20;;;;;;5058485;28;20016;-72
2020/12/09 08:53:19;;;;;;;0.00;0.00;;;5.80;89.90;;;;;;5058431;28;20025;-72
2020/12/09 08:55:45;;;;;;;0.08;0.08;;;6.00;91.50;;;;;;5058173;28;20033;-72
2020/12/09 08:58:11;;;;;;;0.08;0.08;;;6.00;91.20;;;;;;5058371;28;20029;-72
2020/12/09 09:00:39;;;;;;;0.20;0.10;;;6.00;90.80;;;;;;5058335;28;20075;-72
2020/12/09 09:03:07;;;;;;;0.22;0.20;;;6.10;90.70;;;;;;5058301;28;20066;-72
2020/12/09 09:05:33;;;;;;;0.10;0.10;;;6.10;88.70;;;;;;5057040;28;20057;-72
2020/12/09 09:07:59;;;;;;;0.10;0.10;;;6.10;90.30;;;;;;5058268;28;20397;-72
2020/12/09 09:10:24;;;;;;;0.28;0.10;;;6.20;88.90;;;;;;5058397;28;20078;-73
2020/12/09 09:12:50;;;;;;;0.05;0.05;;;6.30;88.90;;;;;;5057031;28;20412;-72
2020/12/09 09:15:16;;;;;;;0.00;0.00;;;6.40;89.10;;;;;;5056907;28;20380;-73
2020/12/09 09:17:43;;;;;;;0.10;0.10;;;6.40;91.00;;;;;;5058288;28;20029;-72
2020/12/09 09:20:09;;;;;;;0.10;0.10;;;6.40;87.70;;;;;;5057885;28;20021;-73
2020/12/09 09:22:35;;;;;;;0.13;0.10;;;6.50;87.70;;;;;;5057901;28;20101;-72
2020/12/09 09:25:01;;;;;;;0.10;0.10;;;6.60;88.50;;;;;;5066343;28;20115;-73
2020/12/09 09:27:27;;;;;;;0.10;0.10;;;6.60;86.40;;;;;;5077683;28;20025;-73
2020/12/09 09:29:55;;;;;;;0.10;0.10;;;6.60;87.40;;;;;;5077862;28;20312;-73
2020/12/09 09:32:22;;;;;;;0.10;0.10;;;6.60;85.20;;;;;;5077635;28;20073;-73
2020/12/09 09:34:48;;;;;;;0.20;0.20;;;6.60;86.30;;;;;;5077526;28;20086;-72
2020/12/09 09:37:14;;;;;;;0.10;0.10;;;6.70;85.60;;;;;;5077532;28;20024;-72
2020/12/09 09:39:40;;;;;;;0.00;0.00;;;6.70;87.80;;;;;;5077666;28;20021;-73
2020/12/09 09:42:05;;;;;;;0.38;0.10;;;6.60;87.50;;;;;;5077606;28;20021;-71
2020/12/09 09:44:31;;;;;;;0.10;0.10;;;6.60;86.50;;;;;;5077377;28;20020;-73
2020/12/09 09:47:00;;;;;;;0.10;0.10;;;6.60;87.40;;;;;;5077256;28;20020;-72
2020/12/09 09:49:26;;;;;;;0.75;0.20;;;6.60;86.20;;;;;;5077940;28;20101;-73
2020/12/09 09:51:53;;;;;;;0.00;0.00;;;6.70;88.60;;;;;;5077317;28;20083;-72
2020/12/09 09:54:20;;;;;;;0.10;0.10;;;6.70;89.40;;;;;;5059335;28;20025;-73
2020/12/09 09:56:46;;;;;;;0.60;0.10;;;7.00;87.20;;;;;;5077185;28;20032;-73
2020/12/09 09:59:12;;;;;;;0.10;0.10;;;7.20;88.50;;;;;;5077481;28;20043;-73
2020/12/09 10:01:37;;;;;;;0.43;0.10;;;7.40;83.70;;;;;;5077374;28;20059;-73
2020/12/09 10:04:06;;;;;;;0.28;0.10;;;7.60;88.50;;;;;;5077045;28;20021;-73
2020/12/09 10:06:33;;;;;;;0.30;0.10;;;7.60;85.50;;;;;;5074973;28;20103;-73
2020/12/09 10:08:59;;;;;;;0.20;0.10;;;7.60;86.30;;;;;;5080059;28;20016;-73
2020/12/09 10:11:25;;;;;;;0.20;0.10;;;7.60;84.50;;;;;;5097229;28;20028;-73
2020/12/09 10:13:51;;;;;;;0.45;0.10;;;7.60;86.40;;;;;;5097405;28;20422;-73
2020/12/09 10:16:27;;;;;;;0.10;0.10;;;7.50;84.20;;;;;;5097178;28;20369;-73
2020/12/09 10:18:53;;;;;;;;;;;7.50;87.00;;;;;;5097694;28;20050;-72
2020/12/09 10:21:32;;;;;;;1.85;0.32;;;7.50;86.60;;;;;;5097130;28;19911;-73
2020/12/09 10:23:58;;;;;;;0.38;0.20;;;7.40;87.00;;;;;;5097157;28;20032;-73
2020/12/09 10:26:34;;;;;;;0.30;0.10;;;7.40;88.00;;;;;;5096977;28;20135;-73
2020/12/09 10:29:03;;;;;;;2.17;0.20;;;7.50;85.70;;;;;;5097278;28;20117;-72
2020/12/09 10:31:42;;;;;;;0.25;0.10;;;7.50;82.90;;;;;;5096978;28;20020;-72
2020/12/09 10:34:10;;;;;;;0.32;0.20;;;7.50;84.40;;;;;;5078966;28;20403;-72
2020/12/09 10:36:37;;;;;;;0.77;0.10;;;7.60;84.80;;;;;;5096854;28;20024;-72
2020/12/09 10:39:05;;;;;;;0.63;0.20;;;7.60;84.50;;;;;;5097388;28;20327;-73
2020/12/09 10:41:31;;;;;;;0.80;0.20;;;7.60;87.20;;;;;;5096845;28;20031;-72
2020/12/09 10:43:57;;;;;;;1.55;0.20;;;7.60;85.10;;;;;;5097055;28;20066;-72
2020/12/09 10:46:33;;;;;;;0.22;0.10;;;7.60;85.70;;;;;;5078870;28;20372;-73
2020/12/09 10:49:01;;;;;;;2.25;0.20;;;7.50;87.30;;;;;;5096917;28;20020;-72
2020/12/09 10:51:27;;;;;;;0.25;0.10;;;7.40;85.90;;;;;;5096742;28;20016;-72
2020/12/09 10:53:52;;;;;;;0.10;0.10;;;7.40;86.70;;;;;;5096882;28;20106;-72
2020/12/09 10:56:29;;;;;;;0.13;0.10;;;7.30;85.00;;;;;;5096748;28;20048;-72
2020/12/09 10:58:55;;;;;;;0.10;0.10;;;7.20;84.90;;;;;;5097023;28;20031;-72
2020/12/09 11:01:22;;;;;;;0.30;0.10;;;7.20;82.60;;;;;;5096711;28;20438;-72
2020/12/09 11:03:48;;;;;;;0.63;0.20;;;7.20;85.10;;;;;;5096605;28;20028;-72
2020/12/09 11:06:14;;;;;;;0.28;0.10;;;7.30;83.40;;;;;;5096612;28;20043;-72
2020/12/09 11:08:40;;;;;;;0.10;0.10;;;7.50;84.30;;;;;;5096653;28;20028;-72
2020/12/09 11:11:06;;;;;;;0.65;0.20;;;7.60;82.40;;;;;;5096865;28;20047;-72
2020/12/09 11:13:32;;;;;;;0.10;0.10;;;7.70;80.20;;;;;;5078657;28;20031;-72
2020/12/09 11:15:58;;;;;;;1.17;0.20;;;7.80;78.80;;;;;;5096484;28;20103;-72
2020/12/09 11:18:24;;;;;;;0.20;0.20;;;7.80;80.20;;;;;;5097306;28;20024;-72
2020/12/09 11:20:49;;;;;;;0.10;0.10;;;7.80;82.30;;;;;;5100509;28;20028;-72
2020/12/09 11:23:15;;;;;;;0.22;0.20;;;7.70;81.30;;;;;;5100478;28;20031;-72
2020/12/09 11:25:41;;;;;;;0.10;0.10;;;7.70;84.20;;;;;;5081959;28;20142;-72
2020/12/09 11:28:06;;;;;;;0.50;0.20;;;7.70;82.50;;;;;;5100370;28;20046;-72
2020/12/09 11:30:32;;;;;;;1.45;0.30;;;7.60;83.10;;;;;;5100396;28;20020;-72
2020/12/09 11:32:58;;;;;;;0.20;0.20;;;7.70;84.70;;;;;;5100225;28;20080;-72
2020/12/09 11:35:24;;;;;;;0.20;0.15;;;7.80;80.90;;;;;;5100213;28;20056;-72
2020/12/09 11:37:49;;;;;;;0.40;0.20;;;7.80;78.00;;;;;;5100444;28;20060;-72
2020/12/09 11:40:15;;;;;;;0.43;0.30;;;7.90;81.40;;;;;;5100141;28;20028;-72
2020/12/09 11:42:40;;;;;;;0.30;0.20;;;8.00;81.80;;;;;;5100056;28;20031;-72
2020/12/09 11:45:07;;;;;;;0.50;0.40;;;8.00;83.50;;;;;;5099932;28;20028;-72
2020/12/09 11:47:34;;;;;;;0.47;0.20;;;8.00;82.60;;;;;;5099938;28;20016;-72
2020/12/09 11:50:00;;;;;;;2.80;1.50;;;8.00;86.20;;;;;;5100051;28;20047;-72
2020/12/09 11:52:26;;;;;;;0.40;0.28;;;7.90;84.70;;;;;;5081891;28;20407;-72
2020/12/09 11:54:52;;;;;;;1.15;0.30;;;7.90;81.60;;;;;;5100169;28;20024;-72
2020/12/09 11:57:18;;;;;;;0.10;0.10;;;7.90;81.80;;;;;;5099795;28;20056;-72
2020/12/09 11:59:43;;;;;;;1.90;0.30;;;7.90;80.30;;;;;;5099765;28;20059;-72
2020/12/09 12:02:09;;;;;;;0.20;0.20;;;7.90;83.10;;;;;;5099671;28;20082;-72
2020/12/09 12:04:35;;;;;;;0.60;0.30;;;7.80;82.80;;;;;;5099605;28;20039;-72
2020/12/09 12:07:00;;;;;;;0.55;0.17;;;7.70;84.60;;;;;;5099570;28;20077;-72
2020/12/09 12:09:26;;;;;;;3.35;2.00;;;7.60;82.60;;;;;;5099707;28;20024;-72
2020/12/09 12:11:51;;;;;;;1.88;1.27;;;7.50;84.10;;;;;;5099472;28;20400;-72
2020/12/09 12:14:17;;;;;;;0.70;0.40;;;7.50;83.40;;;;;;5099417;28;20028;-72
2020/12/09 12:16:44;;;;;;;1.27;0.30;;;7.40;82.50;;;;;;5099405;28;20419;-72
2020/12/09 12:19:12;;;;;;;0.65;0.40;;;7.30;81.30;;;;;;5081475;28;20028;-72
2020/12/09 12:21:38;;;;;;;1.50;0.93;;;7.30;82.80;;;;;;5099290;28;20407;-72
2020/12/09 12:24:05;;;;;;;2.50;0.52;;;7.30;83.60;;;;;;5099366;28;20028;-72
2020/12/09 12:26:31;;;;;;;0.73;0.47;;;7.30;82.40;;;;;;5098996;28;20051;-72
2020/12/09 12:28:56;;;;;;;0.65;0.40;;;7.30;81.50;;;;;;5099267;28;20382;-72
2020/12/09 12:31:22;;;;;;;0.98;0.77;;;7.20;83.60;;;;;;5098414;28;20021;-72
2020/12/09 12:33:48;;;;;;;0.45;0.22;;;7.10;84.70;;;;;;5081117;28;20031;-72
2020/12/09 12:36:14;;;;;;;1.05;0.40;;;7.00;82.30;;;;;;5081093;28;20024;-72
2020/12/09 12:38:40;;;;;;;0.52;0.32;;;7.00;86.20;;;;;;5099040;28;20024;-72
2020/12/09 12:41:07;;;;;;;0.93;0.60;;;6.80;89.50;;;;;;5098932;28;20077;-72
2020/12/09 12:43:32;;;;;;;0.98;0.57;;;6.70;90.20;;;;;;5098927;28;20031;-72
2020/12/09 12:45:58;;;;;;;1.65;0.80;;;6.60;89.70;;;;;;5080794;28;20024;-72
2020/12/09 12:48:24;;;;;;;2.22;1.48;;;6.60;89.40;;;;;;5098843;28;20020;-72
2020/12/09 12:50:49;;;;;;;1.13;0.52;;;6.60;87.80;;;;;;5098783;28;20019;-72
2020/12/09 12:53:15;;;;;;;1.20;0.70;;;6.60;87.10;;;;;;5098681;28;20103;-72
2020/12/09 12:55:42;;;;;;;1.30;0.57;;;6.60;89.00;;;;;;5098606;28;20091;-72
2020/12/09 12:58:07;;;;;;;1.33;0.80;;;6.60;89.20;;;;;;5098612;28;20419;-72
2020/12/09 13:00:33;;;;;;;1.75;1.00;;;6.60;90.70;;;;;;5098663;28;20028;-72